CES1081 ZSPD-ZSNJ
Flight info
| Callsign | CES1081 |
|---|---|
| Flight time | 0h 33m |
| Altitude | 15700 |
| Route | SASAN R343 ESBAG |
| Aircraft | A20N/M-SDE3GHIJ1RWXY/LB1 |
Departure
| Time | 2026-04-30 10:17 |
|---|---|
| Airport | Shanghai Pudong International Airport (ZSPD) |
Arrival
| Time | 2026-04-30 10:50 |
|---|---|
| Airport | Nanjing Lukou International Airport (ZSNJ) |
| Time | Latitude | Longitude | Altitude | Speed | Heading |
|---|---|---|---|---|---|
| 2026-04-30 09:52 | 31.14550 | 121.79889 | 20 ft | 0 kts | 70° |
| 2026-04-30 10:09 | 31.14549 | 121.79887 | 20 ft | 3 kts | 70° |
| 2026-04-30 10:10 | 31.14543 | 121.79866 | 20 ft | 3 kts | 70° |
| 2026-04-30 10:10 | 31.14537 | 121.79846 | 20 ft | 3 kts | 70° |
| 2026-04-30 10:10 | 31.14531 | 121.79825 | 20 ft | 3 kts | 70° |
| 2026-04-30 10:10 | 31.14524 | 121.79804 | 22 ft | 4 kts | 72° |
| 2026-04-30 10:11 | 31.14522 | 121.79774 | 23 ft | 4 kts | 111° |
| 2026-04-30 10:11 | 31.14539 | 121.79750 | 20 ft | 4 kts | 157° |
| 2026-04-30 10:11 | 31.14544 | 121.79748 | 22 ft | 0 kts | 163° |
| 2026-04-30 10:12 | 31.14499 | 121.79764 | 20 ft | 13 kts | 163° |
| 2026-04-30 10:13 | 31.14429 | 121.79747 | 20 ft | 12 kts | 238° |
| 2026-04-30 10:13 | 31.14394 | 121.79632 | 22 ft | 18 kts | 252° |
| 2026-04-30 10:13 | 31.14333 | 121.79496 | 20 ft | 8 kts | 202° |
| 2026-04-30 10:13 | 31.14251 | 121.79520 | 20 ft | 27 kts | 161° |
| 2026-04-30 10:14 | 31.14107 | 121.79576 | 20 ft | 24 kts | 162° |
| 2026-04-30 10:14 | 31.13932 | 121.79644 | 20 ft | 29 kts | 160° |
| 2026-04-30 10:14 | 31.13533 | 121.79794 | 20 ft | 28 kts | 162° |
| 2026-04-30 10:15 | 31.13339 | 121.79872 | 20 ft | 30 kts | 162° |
| 2026-04-30 10:15 | 31.13203 | 121.79922 | 19 ft | 22 kts | 162° |
| 2026-04-30 10:15 | 31.13054 | 121.79979 | 20 ft | 18 kts | 161° |
| 2026-04-30 10:15 | 31.12931 | 121.79951 | 20 ft | 18 kts | 247° |
| 2026-04-30 10:16 | 31.12924 | 121.79920 | 20 ft | 7 kts | 255° |
| 2026-04-30 10:16 | 31.12912 | 121.79834 | 20 ft | 14 kts | 280° |
| 2026-04-30 10:16 | 31.13002 | 121.79769 | 19 ft | 25 kts | 342° |
| 2026-04-30 10:17 | 31.14746 | 121.79111 | 303 ft | 195 kts | 344° |
| 2026-04-30 10:17 | 31.17534 | 121.77810 | 2276 ft | 254 kts | 338° |
| 2026-04-30 10:17 | 31.19160 | 121.77051 | 2668 ft | 249 kts | 340° |
| 2026-04-30 10:18 | 31.20814 | 121.76352 | 2876 ft | 253 kts | 341° |
| 2026-04-30 10:18 | 31.22453 | 121.75703 | 2991 ft | 251 kts | 342° |
| 2026-04-30 10:18 | 31.24117 | 121.75065 | 2997 ft | 252 kts | 342° |
| 2026-04-30 10:19 | 31.27440 | 121.73809 | 2998 ft | 251 kts | 342° |
| 2026-04-30 10:19 | 31.29111 | 121.73175 | 2999 ft | 250 kts | 342° |
| 2026-04-30 10:19 | 31.30769 | 121.72545 | 3040 ft | 252 kts | 342° |
| 2026-04-30 10:19 | 31.32425 | 121.71779 | 3484 ft | 258 kts | 328° |
| 2026-04-30 10:20 | 31.33657 | 121.70307 | 4555 ft | 258 kts | 303° |
| 2026-04-30 10:20 | 31.33723 | 121.64216 | 5784 ft | 269 kts | 260° |
| 2026-04-30 10:21 | 31.33323 | 121.62064 | 5896 ft | 270 kts | 260° |
| 2026-04-30 10:21 | 31.32934 | 121.59915 | 5904 ft | 270 kts | 261° |
| 2026-04-30 10:21 | 31.32561 | 121.57753 | 6165 ft | 273 kts | 261° |
| 2026-04-30 10:21 | 31.32196 | 121.55566 | 7154 ft | 272 kts | 261° |
| 2026-04-30 10:22 | 31.31842 | 121.53424 | 8839 ft | 264 kts | 262° |
| 2026-04-30 10:22 | 31.31494 | 121.51307 | 10316 ft | 267 kts | 261° |
| 2026-04-30 10:22 | 31.31140 | 121.49127 | 11290 ft | 286 kts | 261° |
| 2026-04-30 10:22 | 31.30754 | 121.46759 | 12067 ft | 307 kts | 261° |
| 2026-04-30 10:23 | 31.30343 | 121.44257 | 13086 ft | 316 kts | 260° |
| 2026-04-30 10:23 | 31.29923 | 121.41714 | 14247 ft | 318 kts | 260° |
| 2026-04-30 10:23 | 31.29498 | 121.39162 | 14910 ft | 321 kts | 260° |
| 2026-04-30 10:23 | 31.29074 | 121.36595 | 15326 ft | 322 kts | 261° |
| 2026-04-30 10:24 | 31.28891 | 121.33980 | 15572 ft | 323 kts | 271° |
| 2026-04-30 10:24 | 31.29135 | 121.31372 | 15717 ft | 324 kts | 280° |
| 2026-04-30 10:24 | 31.29782 | 121.28848 | 15776 ft | 326 kts | 288° |
| 2026-04-30 10:24 | 31.30545 | 121.26374 | 15777 ft | 326 kts | 287° |
| 2026-04-30 10:25 | 31.31308 | 121.23869 | 15775 ft | 326 kts | 287° |
| 2026-04-30 10:25 | 31.32065 | 121.21367 | 15774 ft | 326 kts | 287° |
| 2026-04-30 10:25 | 31.32809 | 121.18894 | 15778 ft | 326 kts | 287° |
| 2026-04-30 10:25 | 31.33572 | 121.16352 | 15776 ft | 326 kts | 287° |
| 2026-04-30 10:26 | 31.34314 | 121.13876 | 15777 ft | 326 kts | 287° |
| 2026-04-30 10:26 | 31.35065 | 121.11371 | 15777 ft | 327 kts | 287° |
| 2026-04-30 10:26 | 31.35819 | 121.08864 | 15775 ft | 327 kts | 287° |
| 2026-04-30 10:26 | 31.36583 | 121.06353 | 15774 ft | 327 kts | 288° |
| 2026-04-30 10:27 | 31.37346 | 121.03849 | 15777 ft | 326 kts | 288° |
| 2026-04-30 10:27 | 31.38111 | 121.01339 | 15775 ft | 327 kts | 287° |
| 2026-04-30 10:27 | 31.38874 | 120.98828 | 15778 ft | 327 kts | 288° |
| 2026-04-30 10:27 | 31.39627 | 120.96343 | 15778 ft | 327 kts | 288° |
| 2026-04-30 10:28 | 31.40386 | 120.93838 | 15776 ft | 327 kts | 288° |
| 2026-04-30 10:28 | 31.41147 | 120.91326 | 15779 ft | 327 kts | 287° |
| 2026-04-30 10:28 | 31.41906 | 120.88818 | 15780 ft | 327 kts | 287° |
| 2026-04-30 10:28 | 31.42664 | 120.86306 | 15779 ft | 327 kts | 288° |
| 2026-04-30 10:29 | 31.43422 | 120.83796 | 15777 ft | 327 kts | 288° |
| 2026-04-30 10:29 | 31.44181 | 120.81282 | 15776 ft | 327 kts | 288° |
| 2026-04-30 10:29 | 31.44940 | 120.78762 | 15776 ft | 327 kts | 288° |
| 2026-04-30 10:29 | 31.45695 | 120.76257 | 15777 ft | 327 kts | 288° |
| 2026-04-30 10:30 | 31.46452 | 120.73744 | 15777 ft | 327 kts | 288° |
| 2026-04-30 10:30 | 31.47202 | 120.71249 | 15778 ft | 327 kts | 288° |
| 2026-04-30 10:30 | 31.47960 | 120.68727 | 15780 ft | 327 kts | 288° |
| 2026-04-30 10:30 | 31.48715 | 120.66212 | 15778 ft | 327 kts | 288° |
| 2026-04-30 10:31 | 31.49472 | 120.63688 | 15779 ft | 327 kts | 288° |
| 2026-04-30 10:31 | 31.50229 | 120.61168 | 15774 ft | 327 kts | 288° |
| 2026-04-30 10:31 | 31.50977 | 120.58669 | 15775 ft | 327 kts | 288° |
| 2026-04-30 10:31 | 31.51734 | 120.56142 | 15773 ft | 327 kts | 288° |
| 2026-04-30 10:32 | 31.52484 | 120.53632 | 15774 ft | 327 kts | 288° |
| 2026-04-30 10:32 | 31.53238 | 120.51111 | 15777 ft | 328 kts | 288° |
| 2026-04-30 10:32 | 31.53995 | 120.48577 | 15777 ft | 328 kts | 288° |
| 2026-04-30 10:32 | 31.54739 | 120.46081 | 15774 ft | 328 kts | 288° |
| 2026-04-30 10:33 | 31.55490 | 120.43561 | 15775 ft | 327 kts | 288° |
| 2026-04-30 10:33 | 31.56243 | 120.41037 | 15775 ft | 328 kts | 288° |
| 2026-04-30 10:33 | 31.56993 | 120.38517 | 15774 ft | 328 kts | 288° |
| 2026-04-30 10:33 | 31.57744 | 120.35991 | 15775 ft | 327 kts | 288° |
| 2026-04-30 10:34 | 31.58457 | 120.33452 | 15777 ft | 327 kts | 284° |
| 2026-04-30 10:34 | 31.58932 | 120.30844 | 15774 ft | 327 kts | 278° |
| 2026-04-30 10:34 | 31.59141 | 120.28193 | 15769 ft | 327 kts | 273° |
| 2026-04-30 10:34 | 31.59259 | 120.25553 | 15569 ft | 327 kts | 273° |
| 2026-04-30 10:35 | 31.59388 | 120.22877 | 15338 ft | 326 kts | 274° |
| 2026-04-30 10:35 | 31.59522 | 120.20215 | 15098 ft | 328 kts | 274° |
| 2026-04-30 10:35 | 31.59655 | 120.17546 | 14857 ft | 327 kts | 274° |
| 2026-04-30 10:35 | 31.59785 | 120.14907 | 14623 ft | 327 kts | 274° |
| 2026-04-30 10:36 | 31.59916 | 120.12237 | 14388 ft | 327 kts | 274° |
| 2026-04-30 10:36 | 31.60046 | 120.09561 | 14151 ft | 327 kts | 274° |
| 2026-04-30 10:36 | 31.60175 | 120.06887 | 13918 ft | 328 kts | 274° |
| 2026-04-30 10:36 | 31.60304 | 120.04218 | 13657 ft | 328 kts | 274° |
| 2026-04-30 10:37 | 31.60431 | 120.01548 | 13392 ft | 327 kts | 274° |
| 2026-04-30 10:37 | 31.60559 | 119.98871 | 13135 ft | 328 kts | 274° |
| 2026-04-30 10:37 | 31.60684 | 119.96237 | 12879 ft | 328 kts | 274° |
| 2026-04-30 10:37 | 31.60810 | 119.93563 | 12621 ft | 327 kts | 274° |
| 2026-04-30 10:38 | 31.60936 | 119.90901 | 12366 ft | 327 kts | 274° |
| 2026-04-30 10:38 | 31.61061 | 119.88232 | 12114 ft | 327 kts | 274° |
| 2026-04-30 10:38 | 31.61186 | 119.85565 | 11864 ft | 327 kts | 274° |
| 2026-04-30 10:38 | 31.61310 | 119.82891 | 11613 ft | 327 kts | 274° |
| 2026-04-30 10:39 | 31.61434 | 119.80228 | 11366 ft | 327 kts | 274° |
| 2026-04-30 10:39 | 31.61556 | 119.77564 | 11126 ft | 327 kts | 274° |
| 2026-04-30 10:39 | 31.61679 | 119.74902 | 10879 ft | 327 kts | 274° |
| 2026-04-30 10:39 | 31.61799 | 119.72267 | 10640 ft | 327 kts | 274° |
| 2026-04-30 10:40 | 31.61920 | 119.69607 | 10468 ft | 322 kts | 274° |
| 2026-04-30 10:40 | 31.62036 | 119.67030 | 10350 ft | 309 kts | 274° |
| 2026-04-30 10:40 | 31.62198 | 119.64575 | 10221 ft | 293 kts | 277° |
| 2026-04-30 10:40 | 31.62338 | 119.63014 | 10053 ft | 286 kts | 277° |
| 2026-04-30 10:41 | 31.62633 | 119.59951 | 9669 ft | 277 kts | 278° |
| 2026-04-30 10:41 | 31.62848 | 119.57697 | 9537 ft | 283 kts | 278° |
| 2026-04-30 10:41 | 31.62988 | 119.56175 | 9452 ft | 281 kts | 277° |
| 2026-04-30 10:41 | 31.63257 | 119.53135 | 9275 ft | 280 kts | 277° |
| 2026-04-30 10:42 | 31.63389 | 119.51624 | 9192 ft | 281 kts | 277° |
| 2026-04-30 10:42 | 31.63585 | 119.49355 | 9006 ft | 279 kts | 277° |
| 2026-04-30 10:42 | 31.63779 | 119.47096 | 8602 ft | 278 kts | 277° |
| 2026-04-30 10:42 | 31.64035 | 119.44096 | 7980 ft | 277 kts | 278° |
| 2026-04-30 10:43 | 31.64165 | 119.42571 | 7658 ft | 277 kts | 278° |
| 2026-04-30 10:43 | 31.64354 | 119.40358 | 7196 ft | 276 kts | 278° |
| 2026-04-30 10:43 | 31.64545 | 119.38113 | 6757 ft | 275 kts | 278° |
| 2026-04-30 10:43 | 31.64734 | 119.35889 | 6311 ft | 272 kts | 279° |
| 2026-04-30 10:44 | 31.64917 | 119.33736 | 5611 ft | 257 kts | 278° |
| 2026-04-30 10:44 | 31.65102 | 119.31592 | 5456 ft | 272 kts | 278° |
| 2026-04-30 10:44 | 31.65289 | 119.29418 | 5329 ft | 272 kts | 278° |
| 2026-04-30 10:44 | 31.65477 | 119.27198 | 5198 ft | 272 kts | 278° |
| 2026-04-30 10:45 | 31.65664 | 119.24978 | 5067 ft | 272 kts | 278° |
| 2026-04-30 10:45 | 31.65848 | 119.22789 | 4946 ft | 272 kts | 278° |
| 2026-04-30 10:45 | 31.66034 | 119.20571 | 4819 ft | 272 kts | 278° |
| 2026-04-30 10:45 | 31.66218 | 119.18367 | 4684 ft | 271 kts | 278° |
| 2026-04-30 10:46 | 31.66402 | 119.16165 | 4553 ft | 270 kts | 278° |
| 2026-04-30 10:46 | 31.66585 | 119.13967 | 4419 ft | 270 kts | 278° |
| 2026-04-30 10:46 | 31.66767 | 119.11775 | 4292 ft | 270 kts | 278° |
| 2026-04-30 10:46 | 31.66949 | 119.09586 | 4093 ft | 268 kts | 278° |
| 2026-04-30 10:47 | 31.67128 | 119.07432 | 3815 ft | 266 kts | 277° |
| 2026-04-30 10:47 | 31.67307 | 119.05273 | 3531 ft | 266 kts | 277° |
| 2026-04-30 10:47 | 31.67485 | 119.03127 | 3255 ft | 264 kts | 277° |
| 2026-04-30 10:47 | 31.67659 | 119.01023 | 2846 ft | 249 kts | 277° |
| 2026-04-30 10:48 | 31.67820 | 118.99073 | 2379 ft | 237 kts | 277° |
| 2026-04-30 10:48 | 31.67838 | 118.97025 | 2083 ft | 259 kts | 259° |
| 2026-04-30 10:48 | 31.67127 | 118.95088 | 2004 ft | 260 kts | 237° |
| 2026-04-30 10:48 | 31.66146 | 118.93298 | 1993 ft | 260 kts | 237° |
| 2026-04-30 10:49 | 31.65167 | 118.91504 | 1996 ft | 261 kts | 237° |
| 2026-04-30 10:49 | 31.64198 | 118.89713 | 1995 ft | 261 kts | 237° |
| 2026-04-30 10:49 | 31.63227 | 118.87907 | 1997 ft | 261 kts | 237° |
| 2026-04-30 10:49 | 31.62272 | 118.86125 | 1949 ft | 253 kts | 237° |
| 2026-04-30 10:50 | 31.61399 | 118.84428 | 1802 ft | 232 kts | 245° |
| 2026-04-30 10:50 | 31.61109 | 118.82692 | 1597 ft | 207 kts | 274° |
| 2026-04-30 10:50 | 31.61462 | 118.81210 | 1430 ft | 179 kts | 297° |
| 2026-04-30 10:50 | 31.62127 | 118.80190 | 1062 ft | 0 kts | 319° |